sensor_id;sensor_type;location;lat;lon;timestamp;pressure;altitude;pressure_sealevel;temperature;humidity
56514;BME280;62152;52.078;8.414;2022-08-30T00:01:27;100700.03;;;22.86;49.64
56514;BME280;62152;52.078;8.414;2022-08-30T00:03:12;100704.75;;;22.86;49.87
56514;BME280;62152;52.078;8.414;2022-08-30T00:04:55;100711.88;;;22.87;49.33
56514;BME280;62152;52.078;8.414;2022-08-30T00:06:42;100710.28;;;22.86;49.72
56514;BME280;62152;52.078;8.414;2022-08-30T00:08:26;100706.69;;;22.85;49.40
56514;BME280;62152;52.078;8.414;2022-08-30T00:10:11;100700.34;;;22.85;49.56
56514;BME280;62152;52.078;8.414;2022-08-30T00:11:56;100704.75;;;22.86;49.61
56514;BME280;62152;52.078;8.414;2022-08-30T00:13:45;100704.75;;;22.86;49.62
56514;BME280;62152;52.078;8.414;2022-08-30T00:15:31;100703.13;;;22.85;49.83
56514;BME280;62152;52.078;8.414;2022-08-30T00:17:16;100709.47;;;22.85;49.85
56514;BME280;62152;52.078;8.414;2022-08-30T00:19:01;100701.16;;;22.85;49.85
56514;BME280;62152;52.078;8.414;2022-08-30T00:20:47;100705.88;;;22.85;49.65
56514;BME280;62152;52.078;8.414;2022-08-30T00:22:32;100710.63;;;22.84;49.54
56514;BME280;62152;52.078;8.414;2022-08-30T00:24:17;100705.88;;;22.85;49.80
56514;BME280;62152;52.078;8.414;2022-08-30T00:26:02;100709.47;;;22.85;49.73
56514;BME280;62152;52.078;8.414;2022-08-30T00:27:47;100714.19;;;22.85;49.76
56514;BME280;62152;52.078;8.414;2022-08-30T00:29:34;100708.66;;;22.85;49.60
56514;BME280;62152;52.078;8.414;2022-08-30T00:31:19;100705.88;;;22.85;49.94
56514;BME280;62152;52.078;8.414;2022-08-30T00:33:04;100714.19;;;22.85;49.60
56514;BME280;62152;52.078;8.414;2022-08-30T00:34:50;100703.13;;;22.85;49.82
56514;BME280;62152;52.078;8.414;2022-08-30T00:36:35;100705.88;;;22.85;49.61
56514;BME280;62152;52.078;8.414;2022-08-30T00:38:20;100713.38;;;22.84;49.67
56514;BME280;62152;52.078;8.414;2022-08-30T00:40:07;100709.84;;;22.84;49.76
56514;BME280;62152;52.078;8.414;2022-08-30T00:41:52;100704.31;;;22.84;49.81
56514;BME280;62152;52.078;8.414;2022-08-30T00:43:37;100704.31;;;22.84;49.78
56514;BME280;62152;52.078;8.414;2022-08-30T00:45:28;100702.31;;;22.84;49.95
56514;BME280;62152;52.078;8.414;2022-08-30T00:47:13;100701.53;;;22.84;49.64
56514;BME280;62152;52.078;8.414;2022-08-30T00:49:02;100700.75;;;22.83;49.93
56514;BME280;62152;52.078;8.414;2022-08-30T00:50:53;100699.97;;;22.83;49.96
56514;BME280;62152;52.078;8.414;2022-08-30T00:52:43;100698.78;;;22.84;49.66
56514;BME280;62152;52.078;8.414;2022-08-30T00:54:30;100698.38;;;22.82;49.55
56514;BME280;62152;52.078;8.414;2022-08-30T00:56:17;100699.97;;;22.83;49.71
56514;BME280;62152;52.078;8.414;2022-08-30T00:58:05;100702.72;;;22.83;50.08
56514;BME280;62152;52.078;8.414;2022-08-30T00:59:52;100704.31;;;22.84;50.00
56514;BME280;62152;52.078;8.414;2022-08-30T01:01:39;100709.44;;;22.82;49.56
56514;BME280;62152;52.078;8.414;2022-08-30T01:03:24;100703.50;;;22.83;49.84
56514;BME280;62152;52.078;8.414;2022-08-30T01:05:11;100699.16;;;22.82;49.82
56514;BME280;62152;52.078;8.414;2022-08-30T01:06:56;100693.63;;;22.82;49.56
56514;BME280;62152;52.078;8.414;2022-08-30T01:08:41;100702.72;;;22.83;49.90
56514;BME280;62152;52.078;8.414;2022-08-30T01:10:26;100695.22;;;22.83;49.74
56514;BME280;62152;52.078;8.414;2022-08-30T01:12:11;100696.41;;;22.82;49.97
56514;BME280;62152;52.078;8.414;2022-08-30T01:13:56;100701.13;;;22.82;49.96
56514;BME280;62152;52.078;8.414;2022-08-30T01:15:43;100704.69;;;22.82;49.67
56514;BME280;62152;52.078;8.414;2022-08-30T01:17:32;100701.13;;;22.82;49.92
56514;BME280;62152;52.078;8.414;2022-08-30T01:19:25;100700.34;;;22.81;50.00
56514;BME280;62152;52.078;8.414;2022-08-30T01:21:19;100703.91;;;22.82;49.65
56514;BME280;62152;52.078;8.414;2022-08-30T01:23:12;100707.84;;;22.81;50.05
56514;BME280;62152;52.078;8.414;2022-08-30T01:25:00;100705.09;;;22.81;50.17
56514;BME280;62152;52.078;8.414;2022-08-30T01:26:46;100700.34;;;22.81;49.82
56514;BME280;62152;52.078;8.414;2022-08-30T01:28:32;100698.38;;;22.82;49.86
56514;BME280;62152;52.078;8.414;2022-08-30T01:30:17;100703.13;;;22.81;49.80
56514;BME280;62152;52.078;8.414;2022-08-30T01:31:59;100701.53;;;22.80;49.59
56514;BME280;62152;52.078;8.414;2022-08-30T01:33:44;100702.31;;;22.81;49.97
56514;BME280;62152;52.078;8.414;2022-08-30T01:35:34;100703.13;;;22.81;49.76
56514;BME280;62152;52.078;8.414;2022-08-30T01:37:26;100691.25;;;22.81;50.09
56514;BME280;62152;52.078;8.414;2022-08-30T01:39:16;100701.53;;;22.80;49.90
56514;BME280;62152;52.078;8.414;2022-08-30T01:41:09;100702.31;;;22.81;49.82
56514;BME280;62152;52.078;8.414;2022-08-30T01:42:54;100699.56;;;22.81;50.11
56514;BME280;62152;52.078;8.414;2022-08-30T01:44:39;100701.13;;;22.82;49.74
56514;BME280;62152;52.078;8.414;2022-08-30T01:46:27;100700.75;;;22.80;49.81
56514;BME280;62152;52.078;8.414;2022-08-30T01:48:12;100703.50;;;22.80;49.76
56514;BME280;62152;52.078;8.414;2022-08-30T01:49:56;100696.78;;;22.81;50.08
56514;BME280;62152;52.078;8.414;2022-08-30T01:51:42;100703.50;;;22.80;49.65
56514;BME280;62152;52.078;8.414;2022-08-30T01:53:28;100700.75;;;22.80;49.95
56514;BME280;62152;52.078;8.414;2022-08-30T01:55:15;100697.53;;;22.78;50.01
56514;BME280;62152;52.078;8.414;2022-08-30T01:57:00;100697.53;;;22.78;50.15
56514;BME280;62152;52.078;8.414;2022-08-30T01:58:46;100706.28;;;22.80;50.00
56514;BME280;62152;52.078;8.414;2022-08-30T02:00:31;100705.47;;;22.79;50.06
56514;BME280;62152;52.078;8.414;2022-08-30T02:02:19;100706.28;;;22.80;50.15
56514;BME280;62152;52.078;8.414;2022-08-30T02:04:08;100704.69;;;22.79;49.99
56514;BME280;62152;52.078;8.414;2022-08-30T02:05:55;100703.50;;;22.80;49.88
56514;BME280;62152;52.078;8.414;2022-08-30T02:07:40;100704.69;;;22.79;50.12
56514;BME280;62152;52.078;8.414;2022-08-30T02:09:24;100708.25;;;22.79;50.13
56514;BME280;62152;52.078;8.414;2022-08-30T02:11:12;100711.81;;;22.80;50.00
56514;BME280;62152;52.078;8.414;2022-08-30T02:12:57;100711.00;;;22.79;50.39
56514;BME280;62152;52.078;8.414;2022-08-30T02:14:42;100705.47;;;22.79;49.88
56514;BME280;62152;52.078;8.414;2022-08-30T02:16:27;100713.78;;;22.79;50.08
56514;BME280;62152;52.078;8.414;2022-08-30T02:18:12;100707.44;;;22.79;50.03
56514;BME280;62152;52.078;8.414;2022-08-30T02:19:56;100715.75;;;22.79;50.12
56514;BME280;62152;52.078;8.414;2022-08-30T02:21:41;100711.00;;;22.79;50.35
56514;BME280;62152;52.078;8.414;2022-08-30T02:23:26;100713.34;;;22.77;50.09
56514;BME280;62152;52.078;8.414;2022-08-30T02:25:09;100718.50;;;22.79;50.05
56514;BME280;62152;52.078;8.414;2022-08-30T02:26:56;100715.75;;;22.79;50.16
56514;BME280;62152;52.078;8.414;2022-08-30T02:28:38;100709.41;;;22.78;50.13
56514;BME280;62152;52.078;8.414;2022-08-30T02:30:23;100710.22;;;22.79;50.28
56514;BME280;62152;52.078;8.414;2022-08-30T02:32:08;100721.28;;;22.79;50.01
56514;BME280;62152;52.078;8.414;2022-08-30T02:33:53;100714.94;;;22.78;50.01
56514;BME280;62152;52.078;8.414;2022-08-30T02:35:37;100720.47;;;22.78;50.15
56514;BME280;62152;52.078;8.414;2022-08-30T02:37:22;100720.47;;;22.78;49.95
56514;BME280;62152;52.078;8.414;2022-08-30T02:39:08;100713.34;;;22.77;50.11
56514;BME280;62152;52.078;8.414;2022-08-30T02:40:53;100708.59;;;22.78;50.25
56514;BME280;62152;52.078;8.414;2022-08-30T02:42:40;100711.38;;;22.78;50.13
56514;BME280;62152;52.078;8.414;2022-08-30T02:44:25;100710.59;;;22.77;50.32
56514;BME280;62152;52.078;8.414;2022-08-30T02:46:10;100721.66;;;22.77;50.37
56514;BME280;62152;52.078;8.414;2022-08-30T02:47:54;100714.13;;;22.78;50.01
56514;BME280;62152;52.078;8.414;2022-08-30T02:49:39;100718.09;;;22.77;50.22
56514;BME280;62152;52.078;8.414;2022-08-30T02:51:24;100720.84;;;22.77;50.19
56514;BME280;62152;52.078;8.414;2022-08-30T02:53:09;100716.13;;;22.77;50.53
56514;BME280;62152;52.078;8.414;2022-08-30T02:54:54;100714.94;;;22.78;50.22
56514;BME280;62152;52.078;8.414;2022-08-30T02:56:40;100716.91;;;22.78;49.97
56514;BME280;62152;52.078;8.414;2022-08-30T02:58:28;100718.88;;;22.77;50.22
56514;BME280;62152;52.078;8.414;2022-08-30T03:00:16;100710.59;;;22.77;50.11
56514;BME280;62152;52.078;8.414;2022-08-30T03:02:01;100714.13;;;22.78;50.31
56514;BME280;62152;52.078;8.414;2022-08-30T03:03:46;100715.31;;;22.77;50.43
56514;BME280;62152;52.078;8.414;2022-08-30T03:05:31;100724.41;;;22.77;50.37
56514;BME280;62152;52.078;8.414;2022-08-30T03:07:17;100711.75;;;22.76;50.38
56514;BME280;62152;52.078;8.414;2022-08-30T03:09:02;100722.03;;;22.76;50.23
56514;BME280;62152;52.078;8.414;2022-08-30T03:10:47;100727.97;;;22.78;50.18
56514;BME280;62152;52.078;8.414;2022-08-30T03:12:32;100724.41;;;22.77;50.21
56514;BME280;62152;52.078;8.414;2022-08-30T03:14:19;100718.09;;;22.77;50.30
56514;BME280;62152;52.078;8.414;2022-08-30T03:16:05;100708.22;;;22.76;50.53
56514;BME280;62152;52.078;8.414;2022-08-30T03:17:50;100707.41;;;22.75;50.35
56514;BME280;62152;52.078;8.414;2022-08-30T03:19:35;100711.75;;;22.76;50.62
56514;BME280;62152;52.078;8.414;2022-08-30T03:21:20;100710.19;;;22.72;50.01
56514;BME280;62152;52.078;8.414;2022-08-30T03:23:05;100704.59;;;22.68;50.20
56514;BME280;62152;52.078;8.414;2022-08-30T03:24:50;100704.97;;;22.63;50.48
56514;BME280;62152;52.078;8.414;2022-08-30T03:26:38;100696.56;;;22.45;50.61
56514;BME280;62152;52.078;8.414;2022-08-30T03:28:23;100700.50;;;22.44;50.62
56514;BME280;62152;52.078;8.414;2022-08-30T03:30:11;100707.63;;;22.45;50.63
56514;BME280;62152;52.078;8.414;2022-08-30T03:31:56;100713.16;;;22.45;50.60
56514;BME280;62152;52.078;8.414;2022-08-30T03:33:40;100704.84;;;22.45;50.58
56514;BME280;62152;52.078;8.414;2022-08-30T03:35:25;100716.31;;;22.47;50.58
56514;BME280;62152;52.078;8.414;2022-08-30T03:37:11;100701.72;;;22.50;50.58
56514;BME280;62152;52.078;8.414;2022-08-30T03:38:55;100699.78;;;22.54;50.71
56514;BME280;62152;52.078;8.414;2022-08-30T03:40:40;100708.88;;;22.55;50.46
56514;BME280;62152;52.078;8.414;2022-08-30T03:42:25;100702.44;;;22.40;50.23
56514;BME280;62152;52.078;8.414;2022-08-30T03:44:10;100711.75;;;22.18;50.16
56514;BME280;62152;52.078;8.414;2022-08-30T03:45:58;100706.41;;;21.98;50.52
56514;BME280;62152;52.078;8.414;2022-08-30T03:47:44;100705.00;;;21.78;50.94
56514;BME280;62152;52.078;8.414;2022-08-30T03:49:29;100703.94;;;21.52;51.73
56514;BME280;62152;52.078;8.414;2022-08-30T03:51:14;100708.28;;;21.53;51.65
56514;BME280;62152;52.078;8.414;2022-08-30T03:52:58;100706.91;;;21.70;50.98
56514;BME280;62152;52.078;8.414;2022-08-30T03:54:44;100710.47;;;21.74;50.69
56514;BME280;62152;52.078;8.414;2022-08-30T03:56:29;100706.53;;;21.72;50.77
56514;BME280;62152;52.078;8.414;2022-08-30T03:58:13;100708.88;;;21.70;50.51
56514;BME280;62152;52.078;8.414;2022-08-30T03:59:58;100707.31;;;21.72;50.35
56514;BME280;62152;52.078;8.414;2022-08-30T04:01:55;100712.44;;;21.70;50.49
56514;BME280;62152;52.078;8.414;2022-08-30T04:03:40;100715.53;;;21.65;50.74
56514;BME280;62152;52.078;8.414;2022-08-30T04:05:25;100712.75;;;21.65;50.72
56514;BME280;62152;52.078;8.414;2022-08-30T04:07:10;100709.47;;;21.52;51.08
56514;BME280;62152;52.078;8.414;2022-08-30T04:08:52;100713.72;;;21.46;51.15
56514;BME280;62152;52.078;8.414;2022-08-30T04:10:37;100708.38;;;21.61;50.88
56514;BME280;62152;52.078;8.414;2022-08-30T04:12:22;100711.97;;;21.65;50.75
56514;BME280;62152;52.078;8.414;2022-08-30T04:14:06;100712.03;;;21.72;50.77
56514;BME280;62152;52.078;8.414;2022-08-30T04:15:51;100710.19;;;21.83;50.52
56514;BME280;62152;52.078;8.414;2022-08-30T04:17:38;100711.00;;;21.83;50.47
56514;BME280;62152;52.078;8.414;2022-08-30T04:19:23;100704.31;;;21.88;50.31
56514;BME280;62152;52.078;8.414;2022-08-30T04:21:08;100710.28;;;21.90;50.40
56514;BME280;62152;52.078;8.414;2022-08-30T04:22:53;100708.72;;;21.93;50.43
56514;BME280;62152;52.078;8.414;2022-08-30T04:24:38;100704.31;;;21.88;50.31
56514;BME280;62152;52.078;8.414;2022-08-30T04:26:22;100710.28;;;21.94;50.37
56514;BME280;62152;52.078;8.414;2022-08-30T04:28:08;100706.81;;;22.00;50.26
56514;BME280;62152;52.078;8.414;2022-08-30T04:29:53;100708.44;;;22.05;50.22
56514;BME280;62152;52.078;8.414;2022-08-30T04:31:38;100714.19;;;21.89;50.50
56514;BME280;62152;52.078;8.414;2022-08-30T04:33:25;100710.28;;;21.94;50.30
56514;BME280;62152;52.078;8.414;2022-08-30T04:35:12;100714.22;;;21.93;50.39
56514;BME280;62152;52.078;8.414;2022-08-30T04:36:57;100710.16;;;21.79;50.69
56514;BME280;62152;52.078;8.414;2022-08-30T04:38:42;100722.31;;;21.75;50.92
56514;BME280;62152;52.078;8.414;2022-08-30T04:40:26;100718.34;;;21.69;50.95
56514;BME280;62152;52.078;8.414;2022-08-30T04:42:11;100717.63;;;21.79;50.76
56514;BME280;62152;52.078;8.414;2022-08-30T04:43:56;100717.63;;;21.79;50.65
56514;BME280;62152;52.078;8.414;2022-08-30T04:45:43;100719.69;;;21.85;50.60
56514;BME280;62152;52.078;8.414;2022-08-30T04:47:28;100719.38;;;21.94;50.61
56514;BME280;62152;52.078;8.414;2022-08-30T04:49:16;100723.38;;;22.00;50.51
56514;BME280;62152;52.078;8.414;2022-08-30T04:51:03;100725.31;;;21.96;50.46
56514;BME280;62152;52.078;8.414;2022-08-30T04:52:47;100730.09;;;22.03;50.17
56514;BME280;62152;52.078;8.414;2022-08-30T04:54:32;100730.16;;;22.06;50.04
56514;BME280;62152;52.078;8.414;2022-08-30T04:56:20;100727.00;;;22.08;50.02
56514;BME280;62152;52.078;8.414;2022-08-30T04:58:05;100725.72;;;21.98;50.31
56514;BME280;62152;52.078;8.414;2022-08-30T04:59:50;100723.75;;;21.99;50.23
56514;BME280;62152;52.078;8.414;2022-08-30T05:01:34;100721.84;;;22.06;50.16
56514;BME280;62152;52.078;8.414;2022-08-30T05:03:19;100722.25;;;22.05;50.17
56514;BME280;62152;52.078;8.414;2022-08-30T05:05:07;100725.41;;;22.03;50.41
56514;BME280;62152;52.078;8.414;2022-08-30T05:07:05;100730.16;;;22.06;50.13
56514;BME280;62152;52.078;8.414;2022-08-30T05:08:50;100732.59;;;22.11;50.13
56514;BME280;62152;52.078;8.414;2022-08-30T05:10:37;100729.44;;;22.13;50.11
56514;BME280;62152;52.078;8.414;2022-08-30T05:12:22;100739.72;;;22.16;49.91
56514;BME280;62152;52.078;8.414;2022-08-30T05:14:06;100735.81;;;22.17;49.81
56514;BME280;62152;52.078;8.414;2022-08-30T05:15:51;100742.13;;;22.18;49.96
56514;BME280;62152;52.078;8.414;2022-08-30T05:17:36;100732.63;;;22.15;49.81
56514;BME280;62152;52.078;8.414;2022-08-30T05:19:21;100741.69;;;22.16;49.79
56514;BME280;62152;52.078;8.414;2022-08-30T05:21:10;100741.34;;;22.17;49.78
56514;BME280;62152;52.078;8.414;2022-08-30T05:22:55;100742.88;;;22.15;49.71
56514;BME280;62152;52.078;8.414;2022-08-30T05:24:40;100743.66;;;22.15;49.96
56514;BME280;62152;52.078;8.414;2022-08-30T05:26:27;100744.06;;;22.14;50.20
56514;BME280;62152;52.078;8.414;2022-08-30T05:28:12;100748.16;;;21.93;50.53
56514;BME280;62152;52.078;8.414;2022-08-30T05:29:56;100753.69;;;21.93;50.45
56514;BME280;62152;52.078;8.414;2022-08-30T05:31:43;100755.31;;;21.98;50.42
56514;BME280;62152;52.078;8.414;2022-08-30T05:33:27;100752.50;;;21.94;50.51
56514;BME280;62152;52.078;8.414;2022-08-30T05:35:15;100762.44;;;22.02;50.39
56514;BME280;62152;52.078;8.414;2022-08-30T05:37:03;100750.34;;;22.10;50.21
56514;BME280;62152;52.078;8.414;2022-08-30T05:38:48;100748.31;;;22.07;50.21
56514;BME280;62152;52.078;8.414;2022-08-30T05:40:33;100753.03;;;22.07;50.30
56514;BME280;62152;52.078;8.414;2022-08-30T05:42:17;100760.47;;;21.99;50.56
56514;BME280;62152;52.078;8.414;2022-08-30T05:44:04;100763.22;;;21.99;50.66
56514;BME280;62152;52.078;8.414;2022-08-30T05:45:57;100762.03;;;22.00;50.49
56514;BME280;62152;52.078;8.414;2022-08-30T05:47:42;100756.53;;;22.00;50.64
56514;BME280;62152;52.078;8.414;2022-08-30T05:49:28;100768.75;;;21.99;50.41
56514;BME280;62152;52.078;8.414;2022-08-30T05:51:15;100772.34;;;22.03;50.54
56514;BME280;62152;52.078;8.414;2022-08-30T05:53:02;100770.38;;;22.04;50.49
56514;BME280;62152;52.078;8.414;2022-08-30T05:54:52;100766.31;;;21.94;50.71
56514;BME280;62152;52.078;8.414;2022-08-30T05:56:41;100767.34;;;21.79;51.15
56514;BME280;62152;52.078;8.414;2022-08-30T05:58:26;100773.28;;;21.81;51.05
56514;BME280;62152;52.078;8.414;2022-08-30T06:00:15;100779.25;;;21.87;50.98
56514;BME280;62152;52.078;8.414;2022-08-30T06:02:01;100773.28;;;21.81;51.29
56514;BME280;62152;52.078;8.414;2022-08-30T06:03:46;100763.31;;;21.69;51.40
56514;BME280;62152;52.078;8.414;2022-08-30T06:05:31;100772.78;;;21.72;51.35
56514;BME280;62152;52.078;8.414;2022-08-30T06:07:15;100774.44;;;21.80;51.35
56514;BME280;62152;52.078;8.414;2022-08-30T06:09:04;100776.41;;;21.76;51.26
56514;BME280;62152;52.078;8.414;2022-08-30T06:10:49;100770.94;;;21.83;51.20
56514;BME280;62152;52.078;8.414;2022-08-30T06:12:33;100772.47;;;21.80;51.38
56514;BME280;62152;52.078;8.414;2022-08-30T06:14:18;100770.88;;;21.76;51.62
56514;BME280;62152;52.078;8.414;2022-08-30T06:16:03;100768.44;;;21.71;51.85
56514;BME280;62152;52.078;8.414;2022-08-30T06:17:48;100769.34;;;21.82;51.48
56514;BME280;62152;52.078;8.414;2022-08-30T06:19:33;100768.63;;;21.89;51.24
56514;BME280;62152;52.078;8.414;2022-08-30T06:21:19;100777.34;;;21.91;51.37
56514;BME280;62152;52.078;8.414;2022-08-30T06:23:01;100774.22;;;21.96;50.96
56514;BME280;62152;52.078;8.414;2022-08-30T06:24:48;100771.81;;;21.91;51.06
56514;BME280;62152;52.078;8.414;2022-08-30T06:26:37;100777.63;;;21.82;51.25
56514;BME280;62152;52.078;8.414;2022-08-30T06:28:23;100776.13;;;21.88;51.13
56514;BME280;62152;52.078;8.414;2022-08-30T06:30:09;100772.88;;;21.79;51.44
56514;BME280;62152;52.078;8.414;2022-08-30T06:31:55;100768.97;;;21.83;51.25
56514;BME280;62152;52.078;8.414;2022-08-30T06:33:41;100770.56;;;21.84;51.13
56514;BME280;62152;52.078;8.414;2022-08-30T06:35:27;100780.84;;;21.88;51.32
56514;BME280;62152;52.078;8.414;2022-08-30T06:37:12;100771.75;;;21.83;51.47
56514;BME280;62152;52.078;8.414;2022-08-30T06:38:57;100774.13;;;21.85;51.21
56514;BME280;62152;52.078;8.414;2022-08-30T06:40:44;100774.59;;;21.91;51.06
56514;BME280;62152;52.078;8.414;2022-08-30T06:42:32;100775.44;;;21.98;50.93
56514;BME280;62152;52.078;8.414;2022-08-30T06:44:17;100775.84;;;22.00;50.99
56514;BME280;62152;52.078;8.414;2022-08-30T06:46:02;100775.84;;;22.00;50.87
56514;BME280;62152;52.078;8.414;2022-08-30T06:47:47;100776.25;;;21.99;50.82
56514;BME280;62152;52.078;8.414;2022-08-30T06:49:32;100779.78;;;21.99;50.93
56514;BME280;62152;52.078;8.414;2022-08-30T06:51:19;100782.97;;;22.01;50.79
56514;BME280;62152;52.078;8.414;2022-08-30T06:53:04;100777.06;;;22.03;50.99
56514;BME280;62152;52.078;8.414;2022-08-30T06:54:48;100771.16;;;22.04;50.83
56514;BME280;62152;52.078;8.414;2022-08-30T06:56:37;100775.56;;;22.09;50.57
56514;BME280;62152;52.078;8.414;2022-08-30T06:58:21;100777.09;;;22.06;50.87
56514;BME280;62152;52.078;8.414;2022-08-30T07:00:09;100781.34;;;21.97;51.13
56514;BME280;62152;52.078;8.414;2022-08-30T07:01:54;100777.38;;;21.94;51.04
56514;BME280;62152;52.078;8.414;2022-08-30T07:03:39;100770.34;;;22.00;50.87
56514;BME280;62152;52.078;8.414;2022-08-30T07:05:24;100771.16;;;22.04;50.76
56514;BME280;62152;52.078;8.414;2022-08-30T07:07:09;100768.44;;;22.08;50.71
56514;BME280;62152;52.078;8.414;2022-08-30T07:08:54;100778.78;;;22.11;50.77
56514;BME280;62152;52.078;8.414;2022-08-30T07:10:40;100784.28;;;22.11;50.68
56514;BME280;62152;52.078;8.414;2022-08-30T07:12:27;100777.50;;;22.05;50.88
56514;BME280;62152;52.078;8.414;2022-08-30T07:14:11;100776.38;;;22.09;50.54
56514;BME280;62152;52.078;8.414;2022-08-30T07:15:56;100777.97;;;22.10;50.59
56514;BME280;62152;52.078;8.414;2022-08-30T07:17:41;100784.69;;;22.13;50.49
56514;BME280;62152;52.078;8.414;2022-08-30T07:19:38;100783.91;;;22.13;50.61
56514;BME280;62152;52.078;8.414;2022-08-30T07:21:25;100779.59;;;22.15;50.67
56514;BME280;62152;52.078;8.414;2022-08-30T07:23:11;100788.66;;;22.16;50.51
56514;BME280;62152;52.078;8.414;2022-08-30T07:24:56;100784.31;;;22.15;50.48
56514;BME280;62152;52.078;8.414;2022-08-30T07:26:43;100780.75;;;22.14;50.46
56514;BME280;62152;52.078;8.414;2022-08-30T07:28:33;100788.94;;;22.07;50.68
56514;BME280;62152;52.078;8.414;2022-08-30T07:30:18;100783.50;;;22.10;50.57
56514;BME280;62152;52.078;8.414;2022-08-30T07:32:03;100781.56;;;22.15;50.54
56514;BME280;62152;52.078;8.414;2022-08-30T07:33:48;100784.75;;;22.17;50.45
56514;BME280;62152;52.078;8.414;2022-08-30T07:35:33;100787.41;;;22.09;50.41
56514;BME280;62152;52.078;8.414;2022-08-30T07:37:18;100788.59;;;22.08;50.67
56514;BME280;62152;52.078;8.414;2022-08-30T07:39:03;100798.09;;;22.11;50.64
56514;BME280;62152;52.078;8.414;2022-08-30T07:40:49;100797.31;;;22.10;50.64
56514;BME280;62152;52.078;8.414;2022-08-30T07:42:34;100796.53;;;22.14;50.33
56514;BME280;62152;52.078;8.414;2022-08-30T07:44:21;100794.56;;;22.14;50.51
56514;BME280;62152;52.078;8.414;2022-08-30T07:46:07;100796.53;;;22.14;50.41
56514;BME280;62152;52.078;8.414;2022-08-30T07:47:51;100794.91;;;22.09;50.65
56514;BME280;62152;52.078;8.414;2022-08-30T07:49:38;100798.91;;;22.11;50.65
56514;BME280;62152;52.078;8.414;2022-08-30T07:51:25;100803.66;;;22.15;50.51
56514;BME280;62152;52.078;8.414;2022-08-30T07:53:10;100798.09;;;22.11;50.51
56514;BME280;62152;52.078;8.414;2022-08-30T07:54:54;100798.91;;;22.11;50.56
56514;BME280;62152;52.078;8.414;2022-08-30T07:56:39;100793.78;;;22.14;50.42
56514;BME280;62152;52.078;8.414;2022-08-30T07:58:24;100799.72;;;22.16;50.51
56514;BME280;62152;52.078;8.414;2022-08-30T08:00:13;100798.91;;;22.15;50.36
56514;BME280;62152;52.078;8.414;2022-08-30T08:01:58;100794.19;;;22.16;50.29
56514;BME280;62152;52.078;8.414;2022-08-30T08:03:43;100800.16;;;22.18;50.43
56514;BME280;62152;52.078;8.414;2022-08-30T08:05:28;100797.75;;;22.16;50.25
56514;BME280;62152;52.078;8.414;2022-08-30T08:07:13;100799.31;;;22.14;50.39
56514;BME280;62152;52.078;8.414;2022-08-30T08:08:58;100786.28;;;22.14;50.25
56514;BME280;62152;52.078;8.414;2022-08-30T08:10:43;100791.03;;;22.14;50.21
56514;BME280;62152;52.078;8.414;2022-08-30T08:12:27;100785.09;;;22.11;50.22
56514;BME280;62152;52.078;8.414;2022-08-30T08:14:12;100791.03;;;22.14;50.29
56514;BME280;62152;52.078;8.414;2022-08-30T08:15:59;100791.81;;;22.14;50.18
56514;BME280;62152;52.078;8.414;2022-08-30T08:17:44;100802.41;;;22.08;50.44
56514;BME280;62152;52.078;8.414;2022-08-30T08:19:28;100793.38;;;22.11;50.42
56514;BME280;62152;52.078;8.414;2022-08-30T08:21:13;100796.06;;;22.08;50.52
56514;BME280;62152;52.078;8.414;2022-08-30T08:22:58;100792.03;;;22.02;50.63
56514;BME280;62152;52.078;8.414;2022-08-30T08:24:42;100797.13;;;21.96;50.84
56514;BME280;62152;52.078;8.414;2022-08-30T08:26:27;100796.69;;;21.94;50.97
56514;BME280;62152;52.078;8.414;2022-08-30T08:28:12;100795.16;;;21.97;50.90
56514;BME280;62152;52.078;8.414;2022-08-30T08:29:56;100793.16;;;21.94;50.84
56514;BME280;62152;52.078;8.414;2022-08-30T08:31:44;100796.13;;;21.78;51.21
56514;BME280;62152;52.078;8.414;2022-08-30T08:33:29;100792.97;;;21.76;51.43
56514;BME280;62152;52.078;8.414;2022-08-30T08:35:15;100796.91;;;21.78;51.19
56514;BME280;62152;52.078;8.414;2022-08-30T08:37:01;100795.41;;;21.84;50.97
56514;BME280;62152;52.078;8.414;2022-08-30T08:38:46;100798.66;;;21.90;50.84
56514;BME280;62152;52.078;8.414;2022-08-30T08:40:37;100795.13;;;21.93;50.70
56514;BME280;62152;52.078;8.414;2022-08-30T08:42:33;100797.88;;;21.93;50.74
56514;BME280;62152;52.078;8.414;2022-08-30T08:44:33;100802.59;;;21.93;50.78
56514;BME280;62152;52.078;8.414;2022-08-30T08:46:29;100807.34;;;21.96;51.01
56514;BME280;62152;52.078;8.414;2022-08-30T08:48:28;100800.31;;;22.02;50.64
56514;BME280;62152;52.078;8.414;2022-08-30T08:50:18;100799.53;;;22.01;50.76
56514;BME280;62152;52.078;8.414;2022-08-30T08:52:05;100804.31;;;22.04;50.55
56514;BME280;62152;52.078;8.414;2022-08-30T08:54:07;100804.72;;;22.06;50.64
56514;BME280;62152;52.078;8.414;2022-08-30T08:55:52;100805.13;;;22.05;50.62
56514;BME280;62152;52.078;8.414;2022-08-30T08:57:38;100794.78;;;21.98;50.80
56514;BME280;62152;52.078;8.414;2022-08-30T08:59:22;100797.53;;;21.98;50.86
56514;BME280;62152;52.078;8.414;2022-08-30T09:01:08;100797.13;;;21.96;50.81
56514;BME280;62152;52.078;8.414;2022-08-30T09:02:57;100804.97;;;21.94;50.75
56514;BME280;62152;52.078;8.414;2022-08-30T09:04:44;100800.25;;;21.95;50.94
56514;BME280;62152;52.078;8.414;2022-08-30T09:06:42;100789.59;;;21.93;50.67
56514;BME280;62152;52.078;8.414;2022-08-30T09:08:29;100788.50;;;22.01;50.76
56514;BME280;62152;52.078;8.414;2022-08-30T09:10:16;100790.91;;;22.06;50.45
56514;BME280;62152;52.078;8.414;2022-08-30T09:12:02;100791.31;;;22.05;50.47
56514;BME280;62152;52.078;8.414;2022-08-30T09:13:48;100790.91;;;22.06;50.43
56514;BME280;62152;52.078;8.414;2022-08-30T09:15:33;100803.63;;;22.11;50.43